sensor_id;sensor_type;location;lat;lon;timestamp;P1;durP1;ratioP1;P2;durP2;ratioP2
42146;SDS011;27815;43.410;11.852;2023-08-12T00:00:55;2.65;;;1.40;;
42146;SDS011;27815;43.410;11.852;2023-08-12T00:10:17;2.20;;;1.42;;
42146;SDS011;27815;43.410;11.852;2023-08-12T00:14:55;2.60;;;1.60;;
42146;SDS011;27815;43.410;11.852;2023-08-12T00:20:41;2.58;;;1.50;;
42146;SDS011;27815;43.410;11.852;2023-08-12T00:25:31;2.55;;;1.40;;
42146;SDS011;27815;43.410;11.852;2023-08-12T00:30:55;2.72;;;1.52;;
42146;SDS011;27815;43.410;11.852;2023-08-12T00:35:35;2.97;;;1.67;;
42146;SDS011;27815;43.410;11.852;2023-08-12T00:40:23;2.97;;;1.58;;
42146;SDS011;27815;43.410;11.852;2023-08-12T00:44:34;2.88;;;1.40;;
42146;SDS011;27815;43.410;11.852;2023-08-12T00:49:30;2.70;;;1.40;;
42146;SDS011;27815;43.410;11.852;2023-08-12T00:54:13;3.28;;;1.70;;
42146;SDS011;27815;43.410;11.852;2023-08-12T00:59:31;3.58;;;1.80;;
42146;SDS011;27815;43.410;11.852;2023-08-12T01:04:11;3.85;;;1.98;;
42146;SDS011;27815;43.410;11.852;2023-08-12T01:09:00;3.63;;;2.00;;
42146;SDS011;27815;43.410;11.852;2023-08-12T01:17:49;3.55;;;1.90;;
42146;SDS011;27815;43.410;11.852;2023-08-12T01:22:25;2.67;;;1.60;;
42146;SDS011;27815;43.410;11.852;2023-08-12T01:28:05;3.47;;;1.80;;
42146;SDS011;27815;43.410;11.852;2023-08-12T01:33:15;3.38;;;1.75;;
42146;SDS011;27815;43.410;11.852;2023-08-12T01:38:19;3.88;;;2.00;;
42146;SDS011;27815;43.410;11.852;2023-08-12T01:44:28;3.05;;;1.70;;
42146;SDS011;27815;43.410;11.852;2023-08-12T01:49:39;2.50;;;1.60;;
42146;SDS011;27815;43.410;11.852;2023-08-12T01:54:00;2.58;;;1.48;;
42146;SDS011;27815;43.410;11.852;2023-08-12T01:58:13;2.83;;;1.60;;
42146;SDS011;27815;43.410;11.852;2023-08-12T02:02:58;2.60;;;1.42;;
42146;SDS011;27815;43.410;11.852;2023-08-12T02:07:22;2.80;;;1.60;;
42146;SDS011;27815;43.410;11.852;2023-08-12T02:11:49;3.45;;;1.60;;
42146;SDS011;27815;43.410;11.852;2023-08-12T02:16:16;3.13;;;1.50;;
42146;SDS011;27815;43.410;11.852;2023-08-12T02:20:50;3.33;;;1.75;;
42146;SDS011;27815;43.410;11.852;2023-08-12T02:25:04;2.53;;;1.50;;
42146;SDS011;27815;43.410;11.852;2023-08-12T02:29:37;2.92;;;1.50;;
42146;SDS011;27815;43.410;11.852;2023-08-12T02:35:05;2.80;;;1.58;;
42146;SDS011;27815;43.410;11.852;2023-08-12T02:39:57;2.33;;;1.40;;
42146;SDS011;27815;43.410;11.852;2023-08-12T02:45:45;2.15;;;1.38;;
42146;SDS011;27815;43.410;11.852;2023-08-12T02:50:34;2.90;;;1.50;;
42146;SDS011;27815;43.410;11.852;2023-08-12T02:55:06;3.15;;;1.60;;
42146;SDS011;27815;43.410;11.852;2023-08-12T02:59:17;2.97;;;1.67;;
42146;SDS011;27815;43.410;11.852;2023-08-12T03:04:07;2.65;;;1.42;;
42146;SDS011;27815;43.410;11.852;2023-08-12T03:09:21;3.53;;;1.73;;
42146;SDS011;27815;43.410;11.852;2023-08-12T03:18:50;2.60;;;1.50;;
42146;SDS011;27815;43.410;11.852;2023-08-12T03:23:04;3.13;;;1.70;;
42146;SDS011;27815;43.410;11.852;2023-08-12T03:27:40;3.03;;;1.50;;
42146;SDS011;27815;43.410;11.852;2023-08-12T03:32:22;2.78;;;1.80;;
42146;SDS011;27815;43.410;11.852;2023-08-12T03:37:18;2.97;;;1.63;;
42146;SDS011;27815;43.410;11.852;2023-08-12T03:42:33;4.07;;;1.98;;
42146;SDS011;27815;43.410;11.852;2023-08-12T03:47:15;3.25;;;1.80;;
42146;SDS011;27815;43.410;11.852;2023-08-12T03:51:57;3.05;;;2.00;;
42146;SDS011;27815;43.410;11.852;2023-08-12T03:56:25;3.80;;;2.10;;
42146;SDS011;27815;43.410;11.852;2023-08-12T04:00:44;3.23;;;1.70;;
42146;SDS011;27815;43.410;11.852;2023-08-12T04:05:31;3.33;;;1.70;;
42146;SDS011;27815;43.410;11.852;2023-08-12T04:10:04;2.97;;;1.60;;
42146;SDS011;27815;43.410;11.852;2023-08-12T04:14:41;2.75;;;1.60;;
42146;SDS011;27815;43.410;11.852;2023-08-12T04:19:28;5.80;;;2.08;;
42146;SDS011;27815;43.410;11.852;2023-08-12T04:23:49;2.90;;;1.63;;
42146;SDS011;27815;43.410;11.852;2023-08-12T04:28:41;2.10;;;1.30;;
42146;SDS011;27815;43.410;11.852;2023-08-12T04:33:12;2.55;;;1.50;;
42146;SDS011;27815;43.410;11.852;2023-08-12T04:37:43;3.08;;;1.75;;
42146;SDS011;27815;43.410;11.852;2023-08-12T04:42:41;3.92;;;1.70;;
42146;SDS011;27815;43.410;11.852;2023-08-12T04:47:26;2.28;;;1.48;;
42146;SDS011;27815;43.410;11.852;2023-08-12T04:51:46;2.63;;;1.73;;
42146;SDS011;27815;43.410;11.852;2023-08-12T04:56:30;2.72;;;1.58;;
42146;SDS011;27815;43.410;11.852;2023-08-12T05:01:00;3.95;;;1.65;;
42146;SDS011;27815;43.410;11.852;2023-08-12T05:05:29;3.72;;;1.55;;
42146;SDS011;27815;43.410;11.852;2023-08-12T05:10:15;3.17;;;1.73;;
42146;SDS011;27815;43.410;11.852;2023-08-12T05:14:54;3.50;;;1.98;;
42146;SDS011;27815;43.410;11.852;2023-08-12T05:19:50;2.55;;;1.50;;
42146;SDS011;27815;43.410;11.852;2023-08-12T05:24:39;3.22;;;1.92;;
42146;SDS011;27815;43.410;11.852;2023-08-12T05:30:37;2.55;;;1.50;;
42146;SDS011;27815;43.410;11.852;2023-08-12T05:35:35;3.15;;;1.70;;
42146;SDS011;27815;43.410;11.852;2023-08-12T05:41:19;4.47;;;2.00;;
42146;SDS011;27815;43.410;11.852;2023-08-12T05:51:46;3.05;;;1.90;;
42146;SDS011;27815;43.410;11.852;2023-08-12T06:02:48;2.63;;;1.50;;
42146;SDS011;27815;43.410;11.852;2023-08-12T06:08:43;3.47;;;1.80;;
42146;SDS011;27815;43.410;11.852;2023-08-12T06:13:43;4.10;;;1.60;;
42146;SDS011;27815;43.410;11.852;2023-08-12T06:19:11;4.28;;;1.90;;
42146;SDS011;27815;43.410;11.852;2023-08-12T06:24:16;4.03;;;1.80;;
42146;SDS011;27815;43.410;11.852;2023-08-12T06:30:00;2.65;;;1.77;;
42146;SDS011;27815;43.410;11.852;2023-08-12T06:34:45;3.10;;;1.60;;
42146;SDS011;27815;43.410;11.852;2023-08-12T06:39:22;3.45;;;1.50;;
42146;SDS011;27815;43.410;11.852;2023-08-12T06:50:09;3.00;;;1.65;;
42146;SDS011;27815;43.410;11.852;2023-08-12T06:55:44;4.20;;;1.95;;
42146;SDS011;27815;43.410;11.852;2023-08-12T07:01:38;8.32;;;3.60;;
42146;SDS011;27815;43.410;11.852;2023-08-12T07:11:29;4.47;;;2.38;;
42146;SDS011;27815;43.410;11.852;2023-08-12T07:15:36;6.03;;;2.65;;
42146;SDS011;27815;43.410;11.852;2023-08-12T07:19:54;7.03;;;2.15;;
42146;SDS011;27815;43.410;11.852;2023-08-12T07:24:18;4.03;;;2.20;;
42146;SDS011;27815;43.410;11.852;2023-08-12T07:28:37;3.55;;;1.88;;
42146;SDS011;27815;43.410;11.852;2023-08-12T07:32:47;6.25;;;2.33;;
42146;SDS011;27815;43.410;11.852;2023-08-12T07:37:06;4.00;;;2.08;;
42146;SDS011;27815;43.410;11.852;2023-08-12T07:41:14;3.55;;;1.60;;
42146;SDS011;27815;43.410;11.852;2023-08-12T07:45:19;3.97;;;1.60;;
42146;SDS011;27815;43.410;11.852;2023-08-12T07:49:30;3.78;;;1.65;;
42146;SDS011;27815;43.410;11.852;2023-08-12T07:53:38;3.40;;;1.83;;
42146;SDS011;27815;43.410;11.852;2023-08-12T07:57:44;3.20;;;1.58;;
42146;SDS011;27815;43.410;11.852;2023-08-12T08:01:54;3.45;;;1.60;;
42146;SDS011;27815;43.410;11.852;2023-08-12T08:06:08;2.67;;;1.20;;
42146;SDS011;27815;43.410;11.852;2023-08-12T08:10:15;4.88;;;1.50;;
42146;SDS011;27815;43.410;11.852;2023-08-12T08:14:23;5.20;;;1.55;;
42146;SDS011;27815;43.410;11.852;2023-08-12T08:18:32;5.20;;;1.70;;
42146;SDS011;27815;43.410;11.852;2023-08-12T08:22:40;2.38;;;1.23;;
42146;SDS011;27815;43.410;11.852;2023-08-12T08:26:43;3.33;;;1.48;;
42146;SDS011;27815;43.410;11.852;2023-08-12T08:30:48;3.08;;;1.50;;
42146;SDS011;27815;43.410;11.852;2023-08-12T08:34:52;2.20;;;1.10;;
42146;SDS011;27815;43.410;11.852;2023-08-12T08:38:55;2.83;;;1.40;;
42146;SDS011;27815;43.410;11.852;2023-08-12T08:43:00;2.42;;;1.30;;
42146;SDS011;27815;43.410;11.852;2023-08-12T08:47:08;2.17;;;1.10;;
42146;SDS011;27815;43.410;11.852;2023-08-12T08:51:12;1.75;;;1.10;;
42146;SDS011;27815;43.410;11.852;2023-08-12T08:55:16;3.22;;;1.42;;
42146;SDS011;27815;43.410;11.852;2023-08-12T08:59:23;3.60;;;1.35;;
42146;SDS011;27815;43.410;11.852;2023-08-12T09:03:28;5.40;;;1.25;;
42146;SDS011;27815;43.410;11.852;2023-08-12T09:07:32;3.45;;;1.33;;
42146;SDS011;27815;43.410;11.852;2023-08-12T09:11:38;3.45;;;1.27;;
42146;SDS011;27815;43.410;11.852;2023-08-12T09:15:44;4.15;;;1.48;;
42146;SDS011;27815;43.410;11.852;2023-08-12T09:19:48;2.58;;;1.23;;
42146;SDS011;27815;43.410;11.852;2023-08-12T09:23:52;3.53;;;1.30;;
42146;SDS011;27815;43.410;11.852;2023-08-12T09:28:02;2.55;;;1.10;;
42146;SDS011;27815;43.410;11.852;2023-08-12T09:32:13;2.17;;;1.08;;
42146;SDS011;27815;43.410;11.852;2023-08-12T09:36:22;2.40;;;1.38;;
42146;SDS011;27815;43.410;11.852;2023-08-12T09:40:26;2.15;;;1.15;;
42146;SDS011;27815;43.410;11.852;2023-08-12T09:44:29;3.50;;;1.30;;
42146;SDS011;27815;43.410;11.852;2023-08-12T09:48:33;4.03;;;1.20;;
42146;SDS011;27815;43.410;11.852;2023-08-12T09:52:40;2.15;;;1.00;;
42146;SDS011;27815;43.410;11.852;2023-08-12T09:56:47;2.92;;;1.30;;
42146;SDS011;27815;43.410;11.852;2023-08-12T10:00:59;3.88;;;1.20;;
42146;SDS011;27815;43.410;11.852;2023-08-12T10:05:22;2.22;;;1.20;;
42146;SDS011;27815;43.410;11.852;2023-08-12T10:09:46;2.33;;;1.25;;
42146;SDS011;27815;43.410;11.852;2023-08-12T10:13:57;3.42;;;1.25;;
42146;SDS011;27815;43.410;11.852;2023-08-12T10:18:05;2.03;;;1.10;;
42146;SDS011;27815;43.410;11.852;2023-08-12T10:22:24;1.40;;;0.80;;
42146;SDS011;27815;43.410;11.852;2023-08-12T10:26:35;4.00;;;1.00;;
42146;SDS011;27815;43.410;11.852;2023-08-12T10:30:53;1.60;;;0.82;;
42146;SDS011;27815;43.410;11.852;2023-08-12T10:34:57;1.58;;;0.80;;
42146;SDS011;27815;43.410;11.852;2023-08-12T10:39:08;1.35;;;0.80;;
42146;SDS011;27815;43.410;11.852;2023-08-12T10:43:53;1.45;;;0.85;;
42146;SDS011;27815;43.410;11.852;2023-08-12T10:48:11;1.30;;;0.90;;
42146;SDS011;27815;43.410;11.852;2023-08-12T10:52:31;2.90;;;0.80;;
42146;SDS011;27815;43.410;11.852;2023-08-12T11:01:34;2.35;;;0.80;;
42146;SDS011;27815;43.410;11.852;2023-08-12T11:06:03;1.27;;;0.85;;
42146;SDS011;27815;43.410;11.852;2023-08-12T11:10:32;2.28;;;1.00;;
42146;SDS011;27815;43.410;11.852;2023-08-12T11:15:02;2.08;;;0.85;;
42146;SDS011;27815;43.410;11.852;2023-08-12T11:19:17;1.67;;;0.80;;
42146;SDS011;27815;43.410;11.852;2023-08-12T11:24:18;1.50;;;0.85;;
42146;SDS011;27815;43.410;11.852;2023-08-12T11:28:30;1.42;;;0.90;;
42146;SDS011;27815;43.410;11.852;2023-08-12T11:32:45;1.73;;;1.00;;
42146;SDS011;27815;43.410;11.852;2023-08-12T11:36:49;1.67;;;0.88;;
42146;SDS011;27815;43.410;11.852;2023-08-12T11:40:53;2.65;;;1.00;;
42146;SDS011;27815;43.410;11.852;2023-08-12T11:44:57;2.35;;;1.08;;
42146;SDS011;27815;43.410;11.852;2023-08-12T11:49:04;1.55;;;0.80;;
42146;SDS011;27815;43.410;11.852;2023-08-12T11:53:07;2.92;;;1.00;;
42146;SDS011;27815;43.410;11.852;2023-08-12T11:57:12;3.13;;;0.97;;
42146;SDS011;27815;43.410;11.852;2023-08-12T12:01:15;2.42;;;1.00;;
42146;SDS011;27815;43.410;11.852;2023-08-12T12:05:21;1.73;;;1.00;;
42146;SDS011;27815;43.410;11.852;2023-08-12T12:09:28;2.15;;;0.93;;
42146;SDS011;27815;43.410;11.852;2023-08-12T12:13:32;3.47;;;1.17;;
42146;SDS011;27815;43.410;11.852;2023-08-12T12:17:38;1.20;;;0.70;;
42146;SDS011;27815;43.410;11.852;2023-08-12T12:21:47;1.88;;;0.82;;
42146;SDS011;27815;43.410;11.852;2023-08-12T12:26:01;3.80;;;1.00;;
42146;SDS011;27815;43.410;11.852;2023-08-12T12:30:07;1.55;;;0.80;;
42146;SDS011;27815;43.410;11.852;2023-08-12T12:34:12;1.83;;;1.00;;
42146;SDS011;27815;43.410;11.852;2023-08-12T12:38:17;1.02;;;0.65;;
42146;SDS011;27815;43.410;11.852;2023-08-12T12:42:20;3.17;;;1.15;;
42146;SDS011;27815;43.410;11.852;2023-08-12T12:46:23;5.43;;;1.10;;
42146;SDS011;27815;43.410;11.852;2023-08-12T12:50:26;4.82;;;1.40;;
42146;SDS011;27815;43.410;11.852;2023-08-12T12:54:29;1.45;;;1.02;;
42146;SDS011;27815;43.410;11.852;2023-08-12T12:58:33;1.20;;;0.80;;
42146;SDS011;27815;43.410;11.852;2023-08-12T13:02:37;2.13;;;1.10;;
42146;SDS011;27815;43.410;11.852;2023-08-12T13:06:40;1.75;;;1.00;;
42146;SDS011;27815;43.410;11.852;2023-08-12T13:10:43;5.70;;;1.17;;
42146;SDS011;27815;43.410;11.852;2023-08-12T13:14:47;2.53;;;0.98;;
42146;SDS011;27815;43.410;11.852;2023-08-12T13:18:50;4.03;;;1.00;;
42146;SDS011;27815;43.410;11.852;2023-08-12T13:22:54;4.47;;;1.10;;
42146;SDS011;27815;43.410;11.852;2023-08-12T13:26:57;1.80;;;0.98;;
42146;SDS011;27815;43.410;11.852;2023-08-12T13:31:04;2.08;;;0.95;;
42146;SDS011;27815;43.410;11.852;2023-08-12T13:35:12;2.45;;;0.98;;
42146;SDS011;27815;43.410;11.852;2023-08-12T13:39:15;1.85;;;0.90;;
42146;SDS011;27815;43.410;11.852;2023-08-12T13:43:18;2.40;;;1.10;;
42146;SDS011;27815;43.410;11.852;2023-08-12T13:47:21;2.15;;;1.25;;
42146;SDS011;27815;43.410;11.852;2023-08-12T13:51:24;2.13;;;1.08;;
42146;SDS011;27815;43.410;11.852;2023-08-12T13:55:27;3.42;;;1.10;;
42146;SDS011;27815;43.410;11.852;2023-08-12T13:59:31;2.08;;;1.00;;
42146;SDS011;27815;43.410;11.852;2023-08-12T14:03:34;2.13;;;0.85;;
42146;SDS011;27815;43.410;11.852;2023-08-12T14:07:37;3.22;;;0.95;;
42146;SDS011;27815;43.410;11.852;2023-08-12T14:11:40;1.60;;;0.90;;
42146;SDS011;27815;43.410;11.852;2023-08-12T14:15:43;1.80;;;0.77;;
42146;SDS011;27815;43.410;11.852;2023-08-12T14:19:49;1.45;;;0.82;;
42146;SDS011;27815;43.410;11.852;2023-08-12T14:23:53;1.33;;;0.80;;
42146;SDS011;27815;43.410;11.852;2023-08-12T14:27:56;1.65;;;0.80;;
42146;SDS011;27815;43.410;11.852;2023-08-12T14:31:59;2.30;;;1.10;;
42146;SDS011;27815;43.410;11.852;2023-08-12T14:36:02;1.25;;;0.80;;
42146;SDS011;27815;43.410;11.852;2023-08-12T14:40:06;1.30;;;0.70;;
42146;SDS011;27815;43.410;11.852;2023-08-12T14:44:09;1.52;;;0.95;;
42146;SDS011;27815;43.410;11.852;2023-08-12T14:48:13;2.17;;;1.00;;
42146;SDS011;27815;43.410;11.852;2023-08-12T14:52:18;2.05;;;1.00;;
42146;SDS011;27815;43.410;11.852;2023-08-12T14:56:21;2.55;;;1.00;;
42146;SDS011;27815;43.410;11.852;2023-08-12T15:00:25;2.58;;;1.20;;
42146;SDS011;27815;43.410;11.852;2023-08-12T15:04:31;2.67;;;1.15;;
42146;SDS011;27815;43.410;11.852;2023-08-12T15:08:35;1.77;;;0.80;;
42146;SDS011;27815;43.410;11.852;2023-08-12T15:12:38;1.67;;;1.00;;
42146;SDS011;27815;43.410;11.852;2023-08-12T15:16:41;1.52;;;0.90;;
42146;SDS011;27815;43.410;11.852;2023-08-12T15:20:45;1.65;;;0.75;;
42146;SDS011;27815;43.410;11.852;2023-08-12T15:24:48;1.70;;;0.80;;
42146;SDS011;27815;43.410;11.852;2023-08-12T15:28:51;1.70;;;0.90;;
42146;SDS011;27815;43.410;11.852;2023-08-12T15:32:54;3.05;;;0.98;;
42146;SDS011;27815;43.410;11.852;2023-08-12T15:36:58;1.80;;;0.90;;
42146;SDS011;27815;43.410;11.852;2023-08-12T15:41:01;3.30;;;1.00;;
42146;SDS011;27815;43.410;11.852;2023-08-12T15:45:14;3.53;;;1.10;;
42146;SDS011;27815;43.410;11.852;2023-08-12T15:49:16;2.67;;;1.20;;
42146;SDS011;27815;43.410;11.852;2023-08-12T15:53:21;2.38;;;1.10;;
42146;SDS011;27815;43.410;11.852;2023-08-12T15:57:24;1.65;;;0.90;;
42146;SDS011;27815;43.410;11.852;2023-08-12T16:01:27;1.85;;;0.88;;
42146;SDS011;27815;43.410;11.852;2023-08-12T16:05:33;2.53;;;1.10;;
42146;SDS011;27815;43.410;11.852;2023-08-12T16:09:38;1.73;;;1.10;;
42146;SDS011;27815;43.410;11.852;2023-08-12T16:13:42;1.92;;;1.10;;
42146;SDS011;27815;43.410;11.852;2023-08-12T16:17:46;2.22;;;1.38;;
42146;SDS011;27815;43.410;11.852;2023-08-12T16:21:50;1.95;;;1.55;;
42146;SDS011;27815;43.410;11.852;2023-08-12T16:26:00;2.97;;;2.25;;
42146;SDS011;27815;43.410;11.852;2023-08-12T16:30:04;3.30;;;1.30;;
42146;SDS011;27815;43.410;11.852;2023-08-12T16:34:15;2.72;;;1.00;;
42146;SDS011;27815;43.410;11.852;2023-08-12T16:38:18;2.90;;;1.38;;
42146;SDS011;27815;43.410;11.852;2023-08-12T16:46:26;3.10;;;1.52;;
42146;SDS011;27815;43.410;11.852;2023-08-12T16:50:29;2.85;;;1.60;;
42146;SDS011;27815;43.410;11.852;2023-08-12T16:54:33;2.83;;;1.48;;
42146;SDS011;27815;43.410;11.852;2023-08-12T16:58:36;3.17;;;1.40;;
42146;SDS011;27815;43.410;11.852;2023-08-12T17:02:40;2.57;;;1.47;;
42146;SDS011;27815;43.410;11.852;2023-08-12T17:06:45;4.95;;;1.77;;
42146;SDS011;27815;43.410;11.852;2023-08-12T17:10:48;2.60;;;1.35;;
42146;SDS011;27815;43.410;11.852;2023-08-12T17:15:05;3.03;;;1.40;;
42146;SDS011;27815;43.410;11.852;2023-08-12T17:19:12;2.08;;;1.42;;
42146;SDS011;27815;43.410;11.852;2023-08-12T17:23:21;3.42;;;1.50;;
42146;SDS011;27815;43.410;11.852;2023-08-12T17:27:38;4.28;;;1.70;;
42146;SDS011;27815;43.410;11.852;2023-08-12T17:31:56;2.35;;;1.20;;
42146;SDS011;27815;43.410;11.852;2023-08-12T17:36:13;2.75;;;1.33;;
42146;SDS011;27815;43.410;11.852;2023-08-12T17:40:31;2.60;;;1.30;;
42146;SDS011;27815;43.410;11.852;2023-08-12T17:44:34;3.53;;;1.38;;
42146;SDS011;27815;43.410;11.852;2023-08-12T17:48:41;2.97;;;1.30;;
42146;SDS011;27815;43.410;11.852;2023-08-12T17:52:47;2.20;;;1.30;;
42146;SDS011;27815;43.410;11.852;2023-08-12T17:57:03;2.10;;;1.33;;
42146;SDS011;27815;43.410;11.852;2023-08-12T18:01:10;2.42;;;1.25;;
42146;SDS011;27815;43.410;11.852;2023-08-12T18:09:32;3.90;;;1.50;;
42146;SDS011;27815;43.410;11.852;2023-08-12T18:13:37;4.50;;;1.48;;
42146;SDS011;27815;43.410;11.852;2023-08-12T18:17:45;3.33;;;1.30;;
42146;SDS011;27815;43.410;11.852;2023-08-12T18:21:50;2.10;;;1.03;;
42146;SDS011;27815;43.410;11.852;2023-08-12T18:26:16;3.78;;;1.23;;
42146;SDS011;27815;43.410;11.852;2023-08-12T18:30:20;2.25;;;1.15;;
42146;SDS011;27815;43.410;11.852;2023-08-12T18:34:27;4.45;;;1.23;;
42146;SDS011;27815;43.410;11.852;2023-08-12T18:38:39;1.83;;;1.08;;
42146;SDS011;27815;43.410;11.852;2023-08-12T18:43:02;3.15;;;1.35;;
42146;SDS011;27815;43.410;11.852;2023-08-12T18:47:21;2.72;;;1.30;;
42146;SDS011;27815;43.410;11.852;2023-08-12T18:51:52;2.17;;;1.00;;
42146;SDS011;27815;43.410;11.852;2023-08-12T18:56:15;3.25;;;1.40;;
42146;SDS011;27815;43.410;11.852;2023-08-12T19:00:36;2.65;;;1.40;;
42146;SDS011;27815;43.410;11.852;2023-08-12T19:05:09;3.15;;;1.33;;
42146;SDS011;27815;43.410;11.852;2023-08-12T19:09:44;5.15;;;1.33;;
42146;SDS011;27815;43.410;11.852;2023-08-12T19:14:07;3.35;;;1.20;;
42146;SDS011;27815;43.410;11.852;2023-08-12T19:18:22;2.10;;;1.27;;
42146;SDS011;27815;43.410;11.852;2023-08-12T19:22:38;3.05;;;1.20;;
42146;SDS011;27815;43.410;11.852;2023-08-12T19:26:42;4.47;;;1.40;;
42146;SDS011;27815;43.410;11.852;2023-08-12T19:30:47;3.63;;;1.17;;
42146;SDS011;27815;43.410;11.852;2023-08-12T19:34:53;3.40;;;1.48;;
42146;SDS011;27815;43.410;11.852;2023-08-12T19:38:59;3.22;;;1.30;;
42146;SDS011;27815;43.410;11.852;2023-08-12T19:43:15;3.60;;;1.20;;
42146;SDS011;27815;43.410;11.852;2023-08-12T19:47:40;2.78;;;1.45;;
42146;SDS011;27815;43.410;11.852;2023-08-12T19:51:57;2.40;;;1.33;;
42146;SDS011;27815;43.410;11.852;2023-08-12T19:56:13;3.10;;;1.50;;
42146;SDS011;27815;43.410;11.852;2023-08-12T20:00:31;3.25;;;1.20;;
42146;SDS011;27815;43.410;11.852;2023-08-12T20:04:45;1.97;;;1.17;;
42146;SDS011;27815;43.410;11.852;2023-08-12T20:08:58;2.78;;;1.50;;
42146;SDS011;27815;43.410;11.852;2023-08-12T20:13:03;3.75;;;1.75;;
42146;SDS011;27815;43.410;11.852;2023-08-12T20:17:09;2.83;;;1.50;;
42146;SDS011;27815;43.410;11.852;2023-08-12T20:21:20;3.40;;;1.40;;
42146;SDS011;27815;43.410;11.852;2023-08-12T20:25:28;2.42;;;1.40;;
42146;SDS011;27815;43.410;11.852;2023-08-12T20:29:42;2.95;;;1.60;;
42146;SDS011;27815;43.410;11.852;2023-08-12T20:33:53;3.28;;;1.52;;
42146;SDS011;27815;43.410;11.852;2023-08-12T20:38:07;2.70;;;1.50;;
42146;SDS011;27815;43.410;11.852;2023-08-12T20:42:30;3.97;;;1.40;;
42146;SDS011;27815;43.410;11.852;2023-08-12T20:46:38;2.20;;;1.33;;
42146;SDS011;27815;43.410;11.852;2023-08-12T20:50:50;3.17;;;1.30;;
42146;SDS011;27815;43.410;11.852;2023-08-12T20:55:20;3.42;;;1.60;;
42146;SDS011;27815;43.410;11.852;2023-08-12T21:00:10;3.38;;;1.50;;
42146;SDS011;27815;43.410;11.852;2023-08-12T21:04:42;2.50;;;1.20;;
42146;SDS011;27815;43.410;11.852;2023-08-12T21:08:52;2.13;;;1.20;;
42146;SDS011;27815;43.410;11.852;2023-08-12T21:13:03;3.13;;;1.58;;
42146;SDS011;27815;43.410;11.852;2023-08-12T21:17:26;2.55;;;1.50;;
42146;SDS011;27815;43.410;11.852;2023-08-12T21:21:39;2.75;;;1.50;;
42146;SDS011;27815;43.410;11.852;2023-08-12T21:26:07;3.25;;;1.55;;
42146;SDS011;27815;43.410;11.852;2023-08-12T21:30:22;4.28;;;1.52;;
42146;SDS011;27815;43.410;11.852;2023-08-12T21:34:28;4.47;;;1.50;;
42146;SDS011;27815;43.410;11.852;2023-08-12T21:38:35;3.42;;;1.80;;
42146;SDS011;27815;43.410;11.852;2023-08-12T21:42:39;2.78;;;1.52;;
42146;SDS011;27815;43.410;11.852;2023-08-12T21:46:43;3.05;;;1.50;;
42146;SDS011;27815;43.410;11.852;2023-08-12T21:50:46;2.78;;;1.38;;
42146;SDS011;27815;43.410;11.852;2023-08-12T21:54:49;3.03;;;1.70;;
42146;SDS011;27815;43.410;11.852;2023-08-12T21:58:52;5.15;;;1.75;;
42146;SDS011;27815;43.410;11.852;2023-08-12T22:02:55;3.15;;;1.50;;
42146;SDS011;27815;43.410;11.852;2023-08-12T22:06:58;4.07;;;1.63;;
42146;SDS011;27815;43.410;11.852;2023-08-12T22:11:01;3.78;;;1.52;;
42146;SDS011;27815;43.410;11.852;2023-08-12T22:15:04;2.92;;;1.38;;
42146;SDS011;27815;43.410;11.852;2023-08-12T22:19:08;2.10;;;1.13;;
42146;SDS011;27815;43.410;11.852;2023-08-12T22:23:10;3.45;;;1.60;;
42146;SDS011;27815;43.410;11.852;2023-08-12T22:27:13;2.78;;;1.40;;
42146;SDS011;27815;43.410;11.852;2023-08-12T22:31:17;3.60;;;1.42;;
42146;SDS011;27815;43.410;11.852;2023-08-12T22:35:20;2.78;;;1.35;;
42146;SDS011;27815;43.410;11.852;2023-08-12T22:39:23;5.75;;;1.60;;
42146;SDS011;27815;43.410;11.852;2023-08-12T22:43:26;2.70;;;1.48;;
42146;SDS011;27815;43.410;11.852;2023-08-12T22:47:29;3.28;;;1.38;;
42146;SDS011;27815;43.410;11.852;2023-08-12T22:51:32;2.83;;;1.52;;
42146;SDS011;27815;43.410;11.852;2023-08-12T22:55:35;3.00;;;1.40;;
42146;SDS011;27815;43.410;11.852;2023-08-12T22:59:38;3.03;;;1.50;;
42146;SDS011;27815;43.410;11.852;2023-08-12T23:03:41;3.22;;;1.55;;
42146;SDS011;27815;43.410;11.852;2023-08-12T23:07:44;3.70;;;1.48;;
42146;SDS011;27815;43.410;11.852;2023-08-12T23:11:48;3.65;;;1.50;;
42146;SDS011;27815;43.410;11.852;2023-08-12T23:15:50;2.50;;;1.45;;
42146;SDS011;27815;43.410;11.852;2023-08-12T23:19:53;3.05;;;1.58;;
42146;SDS011;27815;43.410;11.852;2023-08-12T23:23:56;2.92;;;1.55;;
42146;SDS011;27815;43.410;11.852;2023-08-12T23:27:59;2.60;;;1.50;;
42146;SDS011;27815;43.410;11.852;2023-08-12T23:32:03;3.42;;;1.40;;
42146;SDS011;27815;43.410;11.852;2023-08-12T23:36:06;3.53;;;1.63;;
42146;SDS011;27815;43.410;11.852;2023-08-12T23:40:09;3.70;;;1.45;;
42146;SDS011;27815;43.410;11.852;2023-08-12T23:44:14;2.75;;;1.20;;
42146;SDS011;27815;43.410;11.852;2023-08-12T23:48:17;2.63;;;1.40;;
42146;SDS011;27815;43.410;11.852;2023-08-12T23:52:20;4.70;;;2.03;;
42146;SDS011;27815;43.410;11.852;2023-08-12T23:56:22;3.05;;;1.63;;
